ITY1764 LICJ-LICJ
Flight info
| Callsign | ITY1764 |
|---|---|
| Flight time | 1h 6m |
| Altitude | 12000 |
| Route | ROSAS DCT GIANO |
| Aircraft | A320/M-SDE3FGHIRWY/LB1 |
Departure
| Time | 2026-04-30 19:08 |
|---|---|
| Airport | Falcone–Borsellino Airport (LICJ) |
Arrival
| Time | 2026-04-30 20:14 |
|---|---|
| Airport | Falcone–Borsellino Airport (LICJ) |
| Time | Latitude | Longitude | Altitude | Speed | Heading |
|---|---|---|---|---|---|
| 2026-04-30 18:31 | 38.18552 | 13.10606 | 65 ft | 0 kts | 336° |
| 2026-04-30 18:55 | 38.18533 | 13.10617 | 63 ft | 4 kts | 332° |
| 2026-04-30 18:55 | 38.18511 | 13.10635 | 59 ft | 4 kts | 320° |
| 2026-04-30 18:56 | 38.18493 | 13.10680 | 60 ft | 1 kts | 246° |
| 2026-04-30 18:56 | 38.18494 | 13.10684 | 60 ft | 0 kts | 246° |
| 2026-04-30 19:00 | 38.18489 | 13.10668 | 65 ft | 3 kts | 246° |
| 2026-04-30 19:00 | 38.18479 | 13.10637 | 65 ft | 5 kts | 247° |
| 2026-04-30 19:00 | 38.18449 | 13.10551 | 60 ft | 6 kts | 245° |
| 2026-04-30 19:01 | 38.18361 | 13.10488 | 65 ft | 9 kts | 200° |
| 2026-04-30 19:01 | 38.18320 | 13.10444 | 64 ft | 7 kts | 241° |
| 2026-04-30 19:02 | 38.18249 | 13.10369 | 61 ft | 6 kts | 170° |
| 2026-04-30 19:02 | 38.18182 | 13.10269 | 62 ft | 10 kts | 247° |
| 2026-04-30 19:03 | 38.18125 | 13.10102 | 60 ft | 13 kts | 246° |
| 2026-04-30 19:03 | 38.18056 | 13.09897 | 60 ft | 12 kts | 247° |
| 2026-04-30 19:04 | 38.17992 | 13.09705 | 62 ft | 15 kts | 247° |
| 2026-04-30 19:04 | 38.17888 | 13.09397 | 68 ft | 18 kts | 247° |
| 2026-04-30 19:05 | 38.17810 | 13.09166 | 63 ft | 14 kts | 248° |
| 2026-04-30 19:05 | 38.17710 | 13.08927 | 63 ft | 12 kts | 219° |
| 2026-04-30 19:06 | 38.17585 | 13.08808 | 60 ft | 13 kts | 217° |
| 2026-04-30 19:06 | 38.17521 | 13.08760 | 66 ft | 8 kts | 191° |
| 2026-04-30 19:06 | 38.17494 | 13.08837 | 70 ft | 0 kts | 68° |
| 2026-04-30 19:07 | 38.17617 | 13.09202 | 69 ft | 79 kts | 67° |
| 2026-04-30 19:07 | 38.17915 | 13.10087 | 67 ft | 137 kts | 66° |
| 2026-04-30 19:08 | 38.18753 | 13.12535 | 1185 ft | 153 kts | 67° |
| 2026-04-30 19:08 | 38.19678 | 13.15309 | 2086 ft | 193 kts | 68° |
| 2026-04-30 19:08 | 38.20239 | 13.16985 | 2518 ft | 218 kts | 68° |
| 2026-04-30 19:09 | 38.22211 | 13.20261 | 3795 ft | 255 kts | 28° |
| 2026-04-30 19:09 | 38.23854 | 13.21162 | 4784 ft | 259 kts | 23° |
| 2026-04-30 19:09 | 38.25529 | 13.22043 | 5704 ft | 264 kts | 22° |
| 2026-04-30 19:10 | 38.29001 | 13.23870 | 7441 ft | 274 kts | 20° |
| 2026-04-30 19:10 | 38.32554 | 13.25755 | 9198 ft | 282 kts | 20° |
| 2026-04-30 19:11 | 38.34374 | 13.26723 | 10098 ft | 285 kts | 19° |
| 2026-04-30 19:11 | 38.38278 | 13.28798 | 10925 ft | 324 kts | 19° |
| 2026-04-30 19:11 | 38.40380 | 13.29920 | 11599 ft | 331 kts | 19° |
| 2026-04-30 19:12 | 38.42518 | 13.31064 | 11975 ft | 334 kts | 19° |
| 2026-04-30 19:12 | 38.44663 | 13.32216 | 12090 ft | 331 kts | 19° |
| 2026-04-30 19:12 | 38.46764 | 13.33350 | 12096 ft | 326 kts | 19° |
| 2026-04-30 19:13 | 38.50923 | 13.35584 | 12106 ft | 324 kts | 19° |
| 2026-04-30 19:13 | 38.55081 | 13.37804 | 12107 ft | 324 kts | 19° |
| 2026-04-30 19:13 | 38.57162 | 13.38913 | 12104 ft | 324 kts | 19° |
| 2026-04-30 19:14 | 38.59244 | 13.40023 | 12100 ft | 324 kts | 19° |
| 2026-04-30 19:14 | 38.61340 | 13.41145 | 12404 ft | 330 kts | 19° |
| 2026-04-30 19:14 | 38.63460 | 13.42287 | 13299 ft | 331 kts | 19° |
| 2026-04-30 19:14 | 38.65591 | 13.43441 | 13908 ft | 335 kts | 18° |
| 2026-04-30 19:15 | 38.67711 | 13.44586 | 14060 ft | 335 kts | 18° |
| 2026-04-30 19:15 | 38.72004 | 13.46895 | 14107 ft | 334 kts | 18° |
| 2026-04-30 19:15 | 38.74147 | 13.48046 | 14106 ft | 334 kts | 18° |
| 2026-04-30 19:16 | 38.76299 | 13.49185 | 14103 ft | 333 kts | 15° |
| 2026-04-30 19:16 | 38.78532 | 13.49723 | 14115 ft | 324 kts | 356° |
| 2026-04-30 19:16 | 38.82663 | 13.48025 | 14108 ft | 313 kts | 321° |
| 2026-04-30 19:17 | 38.84165 | 13.46023 | 14109 ft | 312 kts | 304° |
| 2026-04-30 19:17 | 38.85351 | 13.40716 | 14109 ft | 317 kts | 274° |
| 2026-04-30 19:17 | 38.85405 | 13.37884 | 14107 ft | 317 kts | 274° |
| 2026-04-30 19:18 | 38.85491 | 13.33173 | 14106 ft | 318 kts | 274° |
| 2026-04-30 19:18 | 38.85563 | 13.29423 | 14107 ft | 318 kts | 274° |
| 2026-04-30 19:18 | 38.85619 | 13.26586 | 14108 ft | 318 kts | 274° |
| 2026-04-30 19:19 | 38.85677 | 13.23749 | 14109 ft | 318 kts | 274° |
| 2026-04-30 19:19 | 38.85734 | 13.20915 | 14110 ft | 318 kts | 274° |
| 2026-04-30 19:19 | 38.85840 | 13.15241 | 14112 ft | 318 kts | 274° |
| 2026-04-30 19:20 | 38.85888 | 13.12406 | 14104 ft | 318 kts | 274° |
| 2026-04-30 19:20 | 38.85935 | 13.09567 | 14106 ft | 318 kts | 274° |
| 2026-04-30 19:20 | 38.86034 | 13.03887 | 14106 ft | 318 kts | 274° |
| 2026-04-30 19:21 | 38.86085 | 13.01054 | 14115 ft | 318 kts | 274° |
| 2026-04-30 19:21 | 38.86181 | 12.95379 | 14118 ft | 318 kts | 274° |
| 2026-04-30 19:22 | 38.86277 | 12.89695 | 14121 ft | 318 kts | 274° |
| 2026-04-30 19:22 | 38.86407 | 12.81232 | 14113 ft | 318 kts | 274° |
| 2026-04-30 19:23 | 38.86538 | 12.72730 | 14107 ft | 318 kts | 274° |
| 2026-04-30 19:24 | 38.86621 | 12.67056 | 14104 ft | 318 kts | 274° |
| 2026-04-30 19:24 | 38.86662 | 12.64220 | 14105 ft | 318 kts | 274° |
| 2026-04-30 19:24 | 38.86741 | 12.58550 | 14116 ft | 318 kts | 273° |
| 2026-04-30 19:25 | 38.84421 | 12.50782 | 14115 ft | 337 kts | 221° |
| 2026-04-30 19:26 | 38.79891 | 12.49307 | 14103 ft | 357 kts | 173° |
| 2026-04-30 19:26 | 38.75251 | 12.51720 | 14097 ft | 362 kts | 157° |
| 2026-04-30 19:26 | 38.72973 | 12.53099 | 14094 ft | 363 kts | 157° |
| 2026-04-30 19:27 | 38.68433 | 12.55850 | 14030 ft | 352 kts | 157° |
| 2026-04-30 19:27 | 38.64082 | 12.58472 | 13441 ft | 341 kts | 157° |
| 2026-04-30 19:28 | 38.61941 | 12.59755 | 13067 ft | 339 kts | 157° |
| 2026-04-30 19:28 | 38.57698 | 12.62293 | 12301 ft | 334 kts | 156° |
| 2026-04-30 19:29 | 38.53511 | 12.64793 | 11558 ft | 330 kts | 156° |
| 2026-04-30 19:29 | 38.51441 | 12.66027 | 11185 ft | 327 kts | 156° |
| 2026-04-30 19:30 | 38.45310 | 12.69665 | 10091 ft | 320 kts | 156° |
| 2026-04-30 19:30 | 38.41413 | 12.71979 | 9574 ft | 295 kts | 156° |
| 2026-04-30 19:31 | 38.37770 | 12.74152 | 8410 ft | 289 kts | 155° |
| 2026-04-30 19:31 | 38.35959 | 12.75229 | 7790 ft | 286 kts | 156° |
| 2026-04-30 19:31 | 38.32378 | 12.77354 | 6579 ft | 281 kts | 156° |
| 2026-04-30 19:32 | 38.30609 | 12.78400 | 5951 ft | 278 kts | 154° |
| 2026-04-30 19:32 | 38.28866 | 12.79434 | 5330 ft | 275 kts | 152° |
| 2026-04-30 19:32 | 38.27178 | 12.80434 | 5067 ft | 257 kts | 152° |
| 2026-04-30 19:32 | 38.25626 | 12.81346 | 5011 ft | 237 kts | 152° |
| 2026-04-30 19:33 | 38.24184 | 12.82186 | 5012 ft | 217 kts | 153° |
| 2026-04-30 19:33 | 38.22822 | 12.82936 | 5043 ft | 211 kts | 153° |
| 2026-04-30 19:33 | 38.21475 | 12.83662 | 5034 ft | 210 kts | 153° |
| 2026-04-30 19:33 | 38.20146 | 12.84374 | 4844 ft | 206 kts | 153° |
| 2026-04-30 19:34 | 38.18833 | 12.85079 | 4429 ft | 204 kts | 153° |
| 2026-04-30 19:34 | 38.17533 | 12.85778 | 3986 ft | 202 kts | 155° |
| 2026-04-30 19:34 | 38.14960 | 12.87164 | 3098 ft | 203 kts | 153° |
| 2026-04-30 19:35 | 38.13649 | 12.87872 | 2642 ft | 205 kts | 153° |
| 2026-04-30 19:35 | 38.12405 | 12.88674 | 2328 ft | 195 kts | 136° |
| 2026-04-30 19:35 | 38.11690 | 12.90051 | 2313 ft | 186 kts | 102° |
| 2026-04-30 19:35 | 38.11711 | 12.91651 | 2311 ft | 183 kts | 70° |
| 2026-04-30 19:36 | 38.12201 | 12.93142 | 2312 ft | 183 kts | 66° |
| 2026-04-30 19:36 | 38.12698 | 12.94618 | 2311 ft | 181 kts | 66° |
| 2026-04-30 19:36 | 38.13593 | 12.97268 | 1984 ft | 151 kts | 66° |
| 2026-04-30 19:37 | 38.13989 | 12.98444 | 1800 ft | 139 kts | 66° |
| 2026-04-30 19:37 | 38.14358 | 12.99541 | 1611 ft | 135 kts | 65° |
| 2026-04-30 19:37 | 38.14723 | 13.00621 | 1428 ft | 132 kts | 66° |
| 2026-04-30 19:37 | 38.15086 | 13.01691 | 1257 ft | 131 kts | 65° |
| 2026-04-30 19:38 | 38.15443 | 13.02751 | 1078 ft | 130 kts | 65° |
| 2026-04-30 19:38 | 38.15796 | 13.03801 | 913 ft | 128 kts | 64° |
| 2026-04-30 19:38 | 38.16228 | 13.04885 | 947 ft | 154 kts | 55° |
| 2026-04-30 19:38 | 38.16967 | 13.05908 | 1597 ft | 167 kts | 43° |
| 2026-04-30 19:39 | 38.18074 | 13.06648 | 1811 ft | 196 kts | 19° |
| 2026-04-30 19:39 | 38.19487 | 13.06763 | 2295 ft | 212 kts | 356° |
| 2026-04-30 19:39 | 38.20929 | 13.06189 | 2841 ft | 222 kts | 345° |
| 2026-04-30 19:39 | 38.22374 | 13.05512 | 2978 ft | 220 kts | 344° |
| 2026-04-30 19:40 | 38.23803 | 13.04845 | 3002 ft | 219 kts | 344° |
| 2026-04-30 19:40 | 38.25233 | 13.04177 | 3008 ft | 219 kts | 345° |
| 2026-04-30 19:40 | 38.26657 | 13.03517 | 3009 ft | 218 kts | 344° |
| 2026-04-30 19:40 | 38.28081 | 13.02858 | 3012 ft | 218 kts | 345° |
| 2026-04-30 19:41 | 38.29502 | 13.02200 | 3018 ft | 216 kts | 345° |
| 2026-04-30 19:41 | 38.30826 | 13.01260 | 3373 ft | 225 kts | 320° |
| 2026-04-30 19:41 | 38.31667 | 12.99567 | 4006 ft | 232 kts | 287° |
| 2026-04-30 19:41 | 38.31684 | 12.97522 | 4668 ft | 236 kts | 255° |
| 2026-04-30 19:42 | 38.30978 | 12.95624 | 4955 ft | 239 kts | 242° |
| 2026-04-30 19:42 | 38.30155 | 12.93801 | 5008 ft | 236 kts | 240° |
| 2026-04-30 19:42 | 38.29330 | 12.92005 | 5016 ft | 234 kts | 240° |
| 2026-04-30 19:42 | 38.28504 | 12.90212 | 5022 ft | 236 kts | 240° |
| 2026-04-30 19:43 | 38.27675 | 12.88410 | 5011 ft | 235 kts | 240° |
| 2026-04-30 19:43 | 38.26851 | 12.86609 | 5021 ft | 236 kts | 240° |
| 2026-04-30 19:43 | 38.26029 | 12.84805 | 5011 ft | 236 kts | 240° |
| 2026-04-30 19:44 | 38.23461 | 12.82798 | 4370 ft | 222 kts | 172° |
| 2026-04-30 19:44 | 38.22023 | 12.83330 | 3895 ft | 213 kts | 152° |
| 2026-04-30 19:44 | 38.20665 | 12.84071 | 3419 ft | 211 kts | 152° |
| 2026-04-30 19:44 | 38.19325 | 12.84801 | 2975 ft | 208 kts | 152° |
| 2026-04-30 19:45 | 38.18003 | 12.85518 | 2579 ft | 203 kts | 153° |
| 2026-04-30 19:45 | 38.16737 | 12.86199 | 2372 ft | 195 kts | 153° |
| 2026-04-30 19:45 | 38.15491 | 12.86874 | 2320 ft | 193 kts | 153° |
| 2026-04-30 19:45 | 38.14248 | 12.87550 | 2332 ft | 195 kts | 153° |
| 2026-04-30 19:46 | 38.13001 | 12.88227 | 2310 ft | 195 kts | 153° |
| 2026-04-30 19:46 | 38.11918 | 12.89187 | 2308 ft | 188 kts | 122° |
| 2026-04-30 19:46 | 38.11527 | 12.90711 | 2308 ft | 181 kts | 86° |
| 2026-04-30 19:46 | 38.11928 | 12.92179 | 2313 ft | 178 kts | 56° |
| 2026-04-30 19:47 | 38.12545 | 12.93534 | 2311 ft | 176 kts | 65° |
| 2026-04-30 19:47 | 38.12862 | 12.94483 | 2312 ft | 177 kts | 67° |
| 2026-04-30 19:47 | 38.13413 | 12.96269 | 2156 ft | 155 kts | 68° |
| 2026-04-30 19:47 | 38.13788 | 12.97483 | 1955 ft | 142 kts | 68° |
| 2026-04-30 19:48 | 38.14160 | 12.98662 | 1930 ft | 157 kts | 67° |
| 2026-04-30 19:48 | 38.14724 | 12.99920 | 2282 ft | 181 kts | 42° |
| 2026-04-30 19:48 | 38.15959 | 13.00589 | 2302 ft | 203 kts | 15° |
| 2026-04-30 19:48 | 38.17360 | 13.00947 | 2280 ft | 206 kts | 15° |
| 2026-04-30 19:49 | 38.18775 | 13.01261 | 2303 ft | 207 kts | 16° |
| 2026-04-30 19:49 | 38.21587 | 13.01992 | 2309 ft | 206 kts | 16° |
| 2026-04-30 19:49 | 38.22990 | 13.02342 | 2309 ft | 205 kts | 16° |
| 2026-04-30 19:50 | 38.24395 | 13.02673 | 2309 ft | 206 kts | 15° |
| 2026-04-30 19:50 | 38.25814 | 13.02991 | 2310 ft | 208 kts | 14° |
| 2026-04-30 19:50 | 38.27269 | 13.03082 | 2312 ft | 214 kts | 357° |
| 2026-04-30 19:50 | 38.28707 | 13.02561 | 2312 ft | 216 kts | 345° |
| 2026-04-30 19:51 | 38.30117 | 13.01912 | 2313 ft | 215 kts | 345° |
| 2026-04-30 19:51 | 38.31523 | 13.01265 | 2323 ft | 214 kts | 345° |
| 2026-04-30 19:51 | 38.32918 | 13.00619 | 2553 ft | 214 kts | 345° |
| 2026-04-30 19:51 | 38.34325 | 12.99966 | 2808 ft | 216 kts | 345° |
| 2026-04-30 19:52 | 38.35262 | 12.99531 | 2923 ft | 217 kts | 345° |
| 2026-04-30 19:52 | 38.36688 | 12.98873 | 3012 ft | 217 kts | 345° |
| 2026-04-30 19:52 | 38.38567 | 12.98013 | 3023 ft | 215 kts | 348° |
| 2026-04-30 19:52 | 38.40014 | 12.97919 | 3015 ft | 207 kts | 18° |
| 2026-04-30 19:53 | 38.41246 | 12.98757 | 3025 ft | 200 kts | 47° |
| 2026-04-30 19:53 | 38.41954 | 13.00244 | 3028 ft | 198 kts | 75° |
| 2026-04-30 19:53 | 38.41986 | 13.01986 | 3028 ft | 200 kts | 103° |
| 2026-04-30 19:53 | 38.41608 | 13.03090 | 3029 ft | 204 kts | 122° |
| 2026-04-30 19:54 | 38.40536 | 13.04261 | 3028 ft | 212 kts | 153° |
| 2026-04-30 19:54 | 38.39065 | 13.04543 | 3030 ft | 222 kts | 186° |
| 2026-04-30 19:54 | 38.37660 | 13.03723 | 3023 ft | 229 kts | 221° |
| 2026-04-30 19:54 | 38.36601 | 13.02187 | 3023 ft | 232 kts | 229° |
| 2026-04-30 19:55 | 38.35466 | 13.00757 | 3018 ft | 228 kts | 206° |
| 2026-04-30 19:55 | 38.33982 | 13.00270 | 3020 ft | 219 kts | 171° |
| 2026-04-30 19:55 | 38.32588 | 13.00863 | 3020 ft | 211 kts | 146° |
| 2026-04-30 19:55 | 38.31255 | 13.01681 | 3016 ft | 213 kts | 150° |
| 2026-04-30 19:56 | 38.30110 | 13.02788 | 3013 ft | 205 kts | 121° |
| 2026-04-30 19:56 | 38.29639 | 13.04436 | 3013 ft | 198 kts | 89° |
| 2026-04-30 19:56 | 38.29956 | 13.06112 | 3014 ft | 198 kts | 59° |
| 2026-04-30 19:56 | 38.30929 | 13.07343 | 3016 ft | 202 kts | 30° |
| 2026-04-30 19:57 | 38.32307 | 13.07759 | 3039 ft | 210 kts | 360° |
| 2026-04-30 19:57 | 38.33738 | 13.07273 | 3070 ft | 218 kts | 344° |
| 2026-04-30 19:57 | 38.35167 | 13.06606 | 3845 ft | 218 kts | 343° |
| 2026-04-30 19:57 | 38.36594 | 13.05938 | 4659 ft | 221 kts | 343° |
| 2026-04-30 19:58 | 38.38031 | 13.05268 | 4934 ft | 218 kts | 342° |
| 2026-04-30 19:58 | 38.39401 | 13.04456 | 5016 ft | 220 kts | 324° |
| 2026-04-30 19:58 | 38.40291 | 13.02877 | 5035 ft | 225 kts | 289° |
| 2026-04-30 19:58 | 38.40318 | 13.00886 | 5039 ft | 231 kts | 252° |
| 2026-04-30 19:59 | 38.39415 | 12.99212 | 5033 ft | 233 kts | 215° |
| 2026-04-30 19:59 | 38.37937 | 12.98512 | 5039 ft | 232 kts | 184° |
| 2026-04-30 19:59 | 38.35083 | 12.96845 | 5038 ft | 235 kts | 228° |
| 2026-04-30 20:00 | 38.34031 | 12.95242 | 5036 ft | 236 kts | 233° |
| 2026-04-30 20:00 | 38.33022 | 12.93591 | 5035 ft | 235 kts | 232° |
| 2026-04-30 20:00 | 38.31996 | 12.91966 | 5032 ft | 235 kts | 231° |
| 2026-04-30 20:00 | 38.30940 | 12.90382 | 5034 ft | 234 kts | 229° |
| 2026-04-30 20:01 | 38.28751 | 12.87304 | 5032 ft | 235 kts | 227° |
| 2026-04-30 20:01 | 38.27804 | 12.85662 | 5026 ft | 233 kts | 248° |
| 2026-04-30 20:01 | 38.27496 | 12.83672 | 5037 ft | 229 kts | 277° |
| 2026-04-30 20:02 | 38.28943 | 12.80320 | 5038 ft | 217 kts | 330° |
| 2026-04-30 20:02 | 38.30314 | 12.79605 | 5032 ft | 213 kts | 354° |
| 2026-04-30 20:03 | 38.33064 | 12.80550 | 5032 ft | 211 kts | 41° |
| 2026-04-30 20:03 | 38.33969 | 12.82007 | 5037 ft | 211 kts | 58° |
| 2026-04-30 20:03 | 38.34714 | 12.83610 | 5035 ft | 210 kts | 59° |
| 2026-04-30 20:03 | 38.35468 | 12.85217 | 5034 ft | 212 kts | 58° |
| 2026-04-30 20:04 | 38.36213 | 12.86844 | 5030 ft | 213 kts | 64° |
| 2026-04-30 20:04 | 38.36511 | 12.88673 | 4938 ft | 213 kts | 91° |
| 2026-04-30 20:04 | 38.36080 | 12.90476 | 4607 ft | 216 kts | 120° |
| 2026-04-30 20:05 | 38.33757 | 12.92862 | 4174 ft | 209 kts | 143° |
| 2026-04-30 20:05 | 38.32565 | 12.93858 | 4051 ft | 201 kts | 143° |
| 2026-04-30 20:05 | 38.30158 | 12.95344 | 3708 ft | 196 kts | 171° |
| 2026-04-30 20:06 | 38.28797 | 12.95176 | 3453 ft | 200 kts | 195° |
| 2026-04-30 20:06 | 38.27587 | 12.94285 | 3201 ft | 204 kts | 220° |
| 2026-04-30 20:06 | 38.26517 | 12.93093 | 2933 ft | 203 kts | 215° |
| 2026-04-30 20:06 | 38.25385 | 12.92052 | 2703 ft | 199 kts | 208° |
| 2026-04-30 20:07 | 38.24191 | 12.91161 | 2447 ft | 197 kts | 202° |
| 2026-04-30 20:07 | 38.22947 | 12.90418 | 2426 ft | 197 kts | 198° |
| 2026-04-30 20:07 | 38.20347 | 12.89382 | 2426 ft | 196 kts | 186° |
| 2026-04-30 20:08 | 38.19009 | 12.89102 | 2428 ft | 194 kts | 181° |
| 2026-04-30 20:08 | 38.17672 | 12.88976 | 2434 ft | 192 kts | 179° |
| 2026-04-30 20:08 | 38.16330 | 12.89000 | 2434 ft | 193 kts | 173° |
| 2026-04-30 20:08 | 38.14999 | 12.89175 | 2436 ft | 192 kts | 168° |
| 2026-04-30 20:09 | 38.13679 | 12.89420 | 2429 ft | 192 kts | 168° |
| 2026-04-30 20:09 | 38.12440 | 12.89929 | 2429 ft | 185 kts | 137° |
| 2026-04-30 20:09 | 38.12104 | 12.92748 | 2443 ft | 175 kts | 66° |
| 2026-04-30 20:10 | 38.13007 | 12.95513 | 2303 ft | 157 kts | 66° |
| 2026-04-30 20:10 | 38.13422 | 12.96750 | 2080 ft | 147 kts | 66° |
| 2026-04-30 20:10 | 38.13808 | 12.97891 | 1896 ft | 136 kts | 66° |
| 2026-04-30 20:11 | 38.14531 | 13.00033 | 1534 ft | 130 kts | 66° |
| 2026-04-30 20:11 | 38.14886 | 13.01086 | 1367 ft | 129 kts | 65° |
| 2026-04-30 20:11 | 38.15240 | 13.02132 | 1201 ft | 128 kts | 66° |
| 2026-04-30 20:12 | 38.15932 | 13.04194 | 832 ft | 126 kts | 65° |
| 2026-04-30 20:12 | 38.16274 | 13.05212 | 653 ft | 124 kts | 66° |
| 2026-04-30 20:12 | 38.16626 | 13.06198 | 507 ft | 122 kts | 66° |
| 2026-04-30 20:13 | 38.16946 | 13.07188 | 314 ft | 120 kts | 68° |
| 2026-04-30 20:13 | 38.17275 | 13.08164 | 183 ft | 121 kts | 67° |
| 2026-04-30 20:13 | 38.17587 | 13.09128 | 69 ft | 115 kts | 67° |
| 2026-04-30 20:13 | 38.17857 | 13.09919 | 69 ft | 66 kts | 67° |
| 2026-04-30 20:14 | 38.17948 | 13.10193 | 62 ft | 13 kts | 67° |
| 2026-04-30 20:14 | 38.17986 | 13.10273 | 66 ft | 10 kts | 41° |
| 2026-04-30 20:14 | 38.18016 | 13.10241 | 68 ft | 6 kts | 277° |
| 2026-04-30 20:14 | 38.18021 | 13.10187 | 65 ft | 6 kts | 277° |
| 2026-04-30 20:15 | 38.18026 | 13.10135 | 65 ft | 6 kts | 277° |
| 2026-04-30 20:15 | 38.18031 | 13.10085 | 64 ft | 6 kts | 277° |
| 2026-04-30 20:15 | 38.18036 | 13.10034 | 66 ft | 6 kts | 277° |
| 2026-04-30 20:15 | 38.18041 | 13.09981 | 66 ft | 6 kts | 277° |
| 2026-04-30 20:16 | 38.18059 | 13.09954 | 60 ft | 4 kts | 352° |
| 2026-04-30 20:16 | 38.18083 | 13.09981 | 61 ft | 7 kts | 59° |
| 2026-04-30 20:16 | 38.18106 | 13.10047 | 58 ft | 10 kts | 67° |
| 2026-04-30 20:16 | 38.18136 | 13.10135 | 63 ft | 12 kts | 66° |
| 2026-04-30 20:17 | 38.18172 | 13.10242 | 63 ft | 14 kts | 67° |
| 2026-04-30 20:17 | 38.18205 | 13.10337 | 61 ft | 10 kts | 62° |
| 2026-04-30 20:17 | 38.18252 | 13.10365 | 62 ft | 6 kts | 351° |
| 2026-04-30 20:17 | 38.18291 | 13.10379 | 58 ft | 6 kts | 41° |
| 2026-04-30 20:18 | 38.18316 | 13.10436 | 61 ft | 7 kts | 66° |
| 2026-04-30 20:18 | 38.18358 | 13.10486 | 63 ft | 10 kts | 22° |
| 2026-04-30 20:18 | 38.18422 | 13.10517 | 62 ft | 9 kts | 24° |
| 2026-04-30 20:18 | 38.18460 | 13.10583 | 64 ft | 10 kts | 65° |
| 2026-04-30 20:19 | 38.18474 | 13.10621 | 61 ft | 3 kts | 63° |
| 2026-04-30 20:19 | 38.18487 | 13.10633 | 65 ft | 4 kts | 24° |
| 2026-04-30 20:19 | 38.18521 | 13.10623 | 65 ft | 3 kts | 338° |
| 2026-04-30 20:19 | 38.18542 | 13.10612 | 60 ft | 3 kts | 336° |
| 2026-04-30 20:20 | 38.18551 | 13.10607 | 63 ft | 0 kts | 336° |